Time;durP1;ratioP1;P1;durP2;ratioP2;P2;SDS_P1;SDS_P2;PMS_P1;PMS_P2;Temp;Humidity;BMP_temperature;BMP_pressure;BME280_temperature;BME280_humidity;BME280_pressure;Samples;Min_cycle;Max_cycle;Signal;HPM_P1;HPM_P2
2021/12/08 00:01:09;;;;;;;0.40;0.30;;;5.80;99.90;;;;;;5111094;28;20480;-73
2021/12/08 00:03:34;;;;;;;0.40;0.30;;;5.80;99.90;;;;;;5111133;28;20408;-73
2021/12/08 00:06:01;;;;;;;0.40;0.20;;;5.70;99.90;;;;;;5110246;28;20408;-73
2021/12/08 00:08:29;;;;;;;0.40;0.20;;;5.70;99.90;;;;;;5111878;28;20377;-73
2021/12/08 00:13:31;;;;;;;0.40;0.30;;;5.60;99.90;;;;;;5111607;28;20828;-73
2021/12/08 00:16:00;;;;;;;0.40;0.20;;;5.70;99.90;;;;;;5110344;28;20380;-73
2021/12/08 00:18:29;;;;;;;0.40;0.30;;;5.60;99.90;;;;;;5112018;28;20939;-73
2021/12/08 00:20:59;;;;;;;0.40;0.30;;;5.60;99.90;;;;;;5111072;28;20376;-73
2021/12/08 00:23:25;;;;;;;0.40;0.30;;;5.60;99.90;;;;;;5093521;28;20416;-73
2021/12/08 00:25:52;;;;;;;0.40;0.30;;;5.60;99.90;;;;;;5081432;28;20502;-73
2021/12/08 00:28:18;;;;;;;0.40;0.30;;;5.50;99.90;;;;;;5091046;28;20385;-73
2021/12/08 00:30:47;;;;;;;0.40;0.20;;;5.50;99.90;;;;;;5091404;28;20515;-73
2021/12/08 00:33:14;;;;;;;0.40;0.30;;;5.50;99.90;;;;;;5082330;28;20710;-73
2021/12/08 00:35:43;;;;;;;0.40;0.30;;;5.70;99.90;;;;;;5070962;28;20368;-73
2021/12/08 00:38:09;;;;;;;0.40;0.30;;;5.70;99.90;;;;;;5051880;28;20394;-73
2021/12/08 00:40:36;;;;;;;0.40;0.30;;;5.80;99.90;;;;;;5052848;28;20459;-73
2021/12/08 00:43:03;;;;;;;0.40;0.30;;;5.90;99.90;;;;;;5052339;28;20384;-75
2021/12/08 00:45:29;;;;;;;0.40;0.20;;;6.00;99.90;;;;;;5052874;28;20586;-73
2021/12/08 00:47:56;;;;;;;0.40;0.30;;;6.00;99.90;;;;;;5070861;28;20486;-73
2021/12/08 00:50:27;;;;;;;0.40;0.20;;;6.00;99.90;;;;;;5070071;28;20437;-73
2021/12/08 00:52:53;;;;;;;0.40;0.30;;;6.00;99.90;;;;;;5052281;28;20817;-73
2021/12/08 00:55:20;;;;;;;0.40;0.30;;;6.00;99.90;;;;;;5069473;28;20438;-73
2021/12/08 00:57:46;;;;;;;0.70;0.50;;;5.90;99.90;;;;;;5070130;28;20376;-73
2021/12/08 01:00:17;;;;;;;0.40;0.30;;;5.80;99.90;;;;;;5070417;28;20384;-73
2021/12/08 01:02:43;;;;;;;0.40;0.30;;;5.70;99.90;;;;;;5052688;28;20475;-74
2021/12/08 01:05:11;;;;;;;0.40;0.30;;;5.60;99.90;;;;;;5052427;28;20778;-73
2021/12/08 01:07:37;;;;;;;0.40;0.30;;;5.80;99.90;;;;;;5035090;28;20558;-74
2021/12/08 01:10:08;;;;;;;0.40;0.20;;;5.80;99.90;;;;;;5070194;28;20932;-74
2021/12/08 01:12:34;;;;;;;0.40;0.30;;;5.70;99.90;;;;;;5069616;28;20367;-74
2021/12/08 01:14:59;;;;;;;0.40;0.20;;;5.50;99.90;;;;;;5052797;28;20394;-74
2021/12/08 01:17:25;;;;;;;0.40;0.20;;;5.40;99.90;;;;;;5069414;28;20860;-75
2021/12/08 01:19:51;;;;;;;0.50;0.40;;;5.10;99.90;;;;;;5052162;28;20745;-74
2021/12/08 01:22:17;;;;;;;0.40;0.30;;;4.90;99.90;;;;;;5070078;28;20883;-74
2021/12/08 01:24:42;;;;;;;0.40;0.30;;;4.80;99.90;;;;;;5053013;28;20418;-74
2021/12/08 01:27:08;;;;;;;0.40;0.30;;;4.90;99.90;;;;;;5090167;28;20424;-74
2021/12/08 01:29:34;;;;;;;0.40;0.20;;;4.70;99.90;;;;;;5089458;28;20386;-75
2021/12/08 01:32:00;;;;;;;0.50;0.50;;;4.70;99.90;;;;;;5090616;28;20861;-74
2021/12/08 01:34:26;;;;;;;0.70;0.70;;;4.70;99.90;;;;;;5109028;28;20869;-74
2021/12/08 01:36:51;;;;;;;0.40;0.20;;;4.60;99.90;;;;;;5091760;28;20504;-74
2021/12/08 01:39:17;;;;;;;0.40;0.30;;;4.60;99.90;;;;;;5110912;28;20451;-74
2021/12/08 01:41:44;;;;;;;0.40;0.30;;;4.70;99.90;;;;;;5110090;28;20383;-74
2021/12/08 01:46:55;;;;;;;0.40;0.30;;;4.70;99.90;;;;;;5109759;28;20513;-74
2021/12/08 01:49:22;;;;;;;0.40;0.30;;;4.60;99.90;;;;;;5110410;28;20388;-74
2021/12/08 01:51:48;;;;;;;0.65;0.65;;;4.50;99.90;;;;;;5110294;28;20741;-75
2021/12/08 01:54:14;;;;;;;0.40;0.20;;;4.50;99.90;;;;;;5110452;28;20368;-74
2021/12/08 01:56:40;;;;;;;0.40;0.30;;;4.50;99.90;;;;;;5110386;28;20384;-74
2021/12/08 01:59:09;;;;;;;0.40;0.30;;;4.50;99.90;;;;;;5109543;28;20387;-74
2021/12/08 02:01:37;;;;;;;0.50;0.50;;;4.50;99.90;;;;;;5112018;28;20802;-74
2021/12/08 02:04:04;;;;;;;0.40;0.20;;;4.60;99.90;;;;;;5113990;28;20376;-74
2021/12/08 02:06:37;;;;;;;4.80;2.30;;;4.70;99.90;;;;;;5114932;28;20399;-74
2021/12/08 02:09:05;;;;;;;0.40;0.20;;;4.70;99.90;;;;;;5114300;28;20473;-74
2021/12/08 02:11:31;;;;;;;0.40;0.30;;;4.60;99.90;;;;;;5114986;28;20375;-73
2021/12/08 02:14:00;;;;;;;0.40;0.30;;;4.60;99.90;;;;;;5115103;28;20365;-74
2021/12/08 02:16:27;;;;;;;0.40;0.30;;;4.60;99.90;;;;;;5095917;28;20861;-74
2021/12/08 02:18:53;;;;;;;0.40;0.30;;;4.70;99.90;;;;;;5114538;28;20425;-74
2021/12/08 02:21:29;;;;;;;0.40;0.20;;;4.50;99.90;;;;;;5114076;28;20376;-74
2021/12/08 02:23:58;;;;;;;0.40;0.30;;;4.60;99.90;;;;;;5114190;28;20379;-74
2021/12/08 02:26:25;;;;;;;0.40;0.20;;;4.60;99.90;;;;;;5114067;28;20423;-74
2021/12/08 02:28:52;;;;;;;0.40;0.20;;;4.70;99.90;;;;;;5114484;28;20810;-74
2021/12/08 02:31:27;;;;;;;0.40;0.20;;;4.50;99.90;;;;;;5113867;28;20380;-74
2021/12/08 02:47:53;;;;;;;0.40;0.20;;;4.40;99.90;;;;;;5092939;28;20499;-74
2021/12/08 02:50:26;;;;;;;0.40;0.20;;;4.40;99.90;;;;;;5093870;28;20473;-73
2021/12/08 02:52:53;;;;;;;1.10;1.00;;;4.40;99.90;;;;;;5093511;28;20831;-74
2021/12/08 02:55:19;;;;;;;0.40;0.30;;;4.50;99.90;;;;;;5093540;28;20398;-73
2021/12/08 02:57:45;;;;;;;0.40;0.20;;;4.60;99.90;;;;;;5092938;28;20401;-74
2021/12/08 03:00:15;;;;;;;0.40;0.30;;;4.60;99.90;;;;;;5093570;28;20393;-74
2021/12/08 03:02:40;;;;;;;0.40;0.20;;;4.70;99.90;;;;;;5093284;28;20504;-74
2021/12/08 03:05:06;;;;;;;0.40;0.30;;;4.70;99.90;;;;;;5093002;28;20398;-74
2021/12/08 03:07:32;;;;;;;0.40;0.20;;;4.70;99.90;;;;;;5093188;28;20685;-73
2021/12/08 03:10:21;;;;;;;0.50;0.40;;;4.70;99.90;;;;;;5092012;28;20447;-73
2021/12/08 03:12:46;;;;;;;0.40;0.30;;;4.70;99.90;;;;;;5091901;28;20847;-74
2021/12/08 03:15:13;;;;;;;0.40;0.20;;;4.80;99.90;;;;;;5074801;28;20387;-74
2021/12/08 03:17:40;;;;;;;0.40;0.30;;;4.90;99.90;;;;;;5093324;28;20396;-73
2021/12/08 03:20:14;;;;;;;0.40;0.30;;;4.90;99.90;;;;;;5091923;28;20473;-73
2021/12/08 03:22:44;;;;;;;0.40;0.30;;;5.00;99.90;;;;;;5074591;28;20394;-73
2021/12/08 03:25:14;;;;;;;0.40;0.30;;;5.00;99.90;;;;;;5091762;28;20486;-74
2021/12/08 03:27:49;;;;;;;0.40;0.30;;;5.10;99.90;;;;;;5092456;28;20822;-73
2021/12/08 03:30:25;;;;;;;0.40;0.20;;;5.20;99.90;;;;;;5073845;28;20393;-73
2021/12/08 03:32:56;;;;;;;0.40;0.28;;;5.30;99.90;;;;;;5097749;28;20427;-73
2021/12/08 03:35:22;;;;;;;0.40;0.20;;;5.30;99.90;;;;;;5112662;28;20377;-73
2021/12/08 03:37:48;;;;;;;0.40;0.30;;;5.30;99.90;;;;;;5112296;28;20521;-73
2021/12/08 03:40:17;;;;;;;0.40;0.30;;;5.40;99.90;;;;;;5112216;28;20394;-74
2021/12/08 03:42:45;;;;;;;0.40;0.30;;;5.40;99.90;;;;;;5112934;28;20402;-73
2021/12/08 03:45:16;;;;;;;0.40;0.30;;;5.40;99.90;;;;;;5111395;28;20900;-74
2021/12/08 03:47:46;;;;;;;0.40;0.30;;;5.50;99.90;;;;;;5112774;28;20460;-73
2021/12/08 03:50:14;;;;;;;0.40;0.40;;;5.60;99.90;;;;;;5093495;28;20380;-74
2021/12/08 03:52:40;;;;;;;0.40;0.30;;;5.60;99.90;;;;;;5112274;28;20383;-73
2021/12/08 03:55:10;;;;;;;0.90;0.80;;;5.60;99.90;;;;;;5112562;28;20388;-73
2021/12/08 03:57:36;;;;;;;0.40;0.20;;;5.70;99.90;;;;;;5112120;28;20396;-73
2021/12/08 04:00:05;;;;;;;0.40;0.30;;;6.20;99.90;;;;;;5112317;28;20369;-73
2021/12/08 04:02:31;;;;;;;0.40;0.30;;;6.50;99.90;;;;;;5111314;28;20408;-73
2021/12/08 04:04:56;;;;;;;0.40;0.30;;;6.70;99.90;;;;;;5111554;28;20454;-73
2021/12/08 04:07:22;;;;;;;0.40;0.30;;;6.80;99.90;;;;;;5111609;28;20843;-74
2021/12/08 04:09:49;;;;;;;0.40;0.20;;;6.90;99.90;;;;;;5111984;28;20445;-73
2021/12/08 04:12:18;;;;;;;0.40;0.30;;;6.90;99.90;;;;;;5112146;28;20393;-73
2021/12/08 04:15:01;;;;;;;0.40;0.20;;;6.80;99.90;;;;;;5111641;28;20395;-73
2021/12/08 04:17:34;;;;;;;0.40;0.27;;;6.80;99.90;;;;;;5111070;28;20830;-74
2021/12/08 04:20:04;;;;;;;0.40;0.35;;;6.80;99.90;;;;;;5093564;28;20385;-74
2021/12/08 04:22:36;;;;;;;0.40;0.20;;;6.70;99.90;;;;;;5092604;28;20388;-75
2021/12/08 04:25:13;;;;;;;0.40;0.30;;;6.70;99.90;;;;;;5110896;28;20463;-74
2021/12/08 04:27:42;;;;;;;0.40;0.20;;;6.70;99.90;;;;;;5110818;28;20571;-74
2021/12/08 04:30:13;;;;;;;0.40;0.20;;;6.70;99.90;;;;;;5111666;28;20372;-74
2021/12/08 04:32:39;;;;;;;0.40;0.20;;;6.70;99.90;;;;;;5107377;28;20378;-74
2021/12/08 04:35:09;;;;;;;0.40;0.30;;;6.70;99.90;;;;;;5073143;28;20402;-73
2021/12/08 04:37:38;;;;;;;0.40;0.22;;;6.70;99.90;;;;;;5073156;28;20754;-74
2021/12/08 04:45:40;;;;;;;0.40;0.20;;;6.60;99.90;;;;;;5091212;28;20409;-74
2021/12/08 05:07:14;;;;;;;0.40;0.30;;;6.50;99.90;;;;;;5091229;28;20794;-74
2021/12/08 05:09:37;;;;;;;0.40;0.20;;;6.50;99.90;;;;;;5090613;28;20721;-73
2021/12/08 05:12:13;;;;;;;0.40;0.20;;;6.40;99.90;;;;;;5090252;28;20704;-73
2021/12/08 05:14:46;;;;;;;0.40;0.30;;;6.40;99.90;;;;;;5090914;28;20408;-73
2021/12/08 05:17:20;;;;;;;0.40;0.20;;;6.40;99.90;;;;;;5090237;28;20379;-73
2021/12/08 05:19:51;;;;;;;0.40;0.20;;;6.40;99.90;;;;;;5090907;28;20863;-73
2021/12/08 05:22:22;;;;;;;0.40;0.20;;;6.60;99.90;;;;;;5089580;28;20382;-74
2021/12/08 05:24:50;;;;;;;0.40;0.20;;;6.60;99.90;;;;;;5090550;28;20459;-74
2021/12/08 05:27:25;;;;;;;0.40;0.20;;;6.50;99.90;;;;;;5090197;28;20405;-74
2021/12/08 05:29:54;;;;;;;0.40;0.20;;;6.40;99.90;;;;;;5091137;28;20860;-74
2021/12/08 05:32:20;;;;;;;0.40;0.20;;;6.50;99.90;;;;;;5072067;28;20408;-75
2021/12/08 05:34:46;;;;;;;0.40;0.20;;;6.50;99.90;;;;;;5110236;28;20749;-74
2021/12/08 05:37:15;;;;;;;0.40;0.20;;;6.50;99.90;;;;;;5112932;28;20519;-75
2021/12/08 05:39:42;;;;;;;0.40;0.20;;;6.50;99.90;;;;;;5114740;28;20416;-75
2021/12/08 05:42:12;;;;;;;0.40;0.20;;;6.40;99.90;;;;;;5115092;28;20372;-74
2021/12/08 05:44:39;;;;;;;0.40;0.30;;;6.50;99.90;;;;;;5114105;28;20373;-75
2021/12/08 05:47:10;;;;;;;0.40;0.30;;;6.50;99.90;;;;;;5115069;28;20372;-75
2021/12/08 05:49:36;;;;;;;0.60;0.60;;;6.50;99.90;;;;;;5114839;28;20699;-75
2021/12/08 05:52:04;;;;;;;0.40;0.30;;;6.40;99.90;;;;;;5115248;28;20380;-75
2021/12/08 05:54:33;;;;;;;0.40;0.25;;;6.40;99.90;;;;;;5114750;28;20876;-75
2021/12/08 05:57:06;;;;;;;0.40;0.30;;;6.20;99.90;;;;;;5096780;28;20444;-75
2021/12/08 05:59:32;;;;;;;0.40;0.30;;;6.20;99.90;;;;;;5109052;28;20397;-76
2021/12/08 06:02:04;;;;;;;0.60;0.50;;;6.30;99.90;;;;;;5083114;28;20467;-76
2021/12/08 06:04:31;;;;;;;0.40;0.20;;;6.10;99.90;;;;;;5101053;28;20464;-75
2021/12/08 06:06:59;;;;;;;0.40;0.28;;;6.10;99.90;;;;;;5100369;28;20471;-75
2021/12/08 06:09:31;;;;;;;0.40;0.20;;;6.10;99.90;;;;;;5099845;28;20449;-75
2021/12/08 06:11:57;;;;;;;0.40;0.30;;;6.20;99.90;;;;;;5101679;28;20373;-74
2021/12/08 06:14:31;;;;;;;0.40;0.30;;;6.40;99.90;;;;;;5100965;28;20384;-76
2021/12/08 06:16:58;;;;;;;0.40;0.30;;;6.40;99.90;;;;;;5099977;28;20412;-76
2021/12/08 06:19:24;;;;;;;0.40;0.30;;;6.40;99.90;;;;;;5097190;28;20388;-75
2021/12/08 06:21:50;;;;;;;0.40;0.30;;;6.50;99.90;;;;;;5099593;28;20380;-75
2021/12/08 06:24:20;;;;;;;0.40;0.20;;;6.40;99.90;;;;;;5099332;28;20388;-74
2021/12/08 06:26:47;;;;;;;0.40;0.30;;;6.40;99.90;;;;;;5081234;28;21521;-75
2021/12/08 06:29:17;;;;;;;0.40;0.20;;;6.30;99.90;;;;;;5098081;28;20484;-75
2021/12/08 06:31:44;;;;;;;0.40;0.30;;;6.30;99.90;;;;;;5081585;28;20408;-75
2021/12/08 06:34:10;;;;;;;0.40;0.20;;;6.20;99.90;;;;;;5099752;28;20396;-75
2021/12/08 06:36:50;;;;;;;0.40;0.30;;;6.30;99.90;;;;;;5100953;28;21042;-76
2021/12/08 06:39:23;;;;;;;0.40;0.30;;;6.20;99.90;;;;;;5080327;28;20432;-75
2021/12/08 06:41:54;;;;;;;0.40;0.30;;;6.20;99.90;;;;;;5100590;28;20845;-75
2021/12/08 06:44:24;;;;;;;0.40;0.30;;;6.30;99.90;;;;;;5081694;28;20496;-76
2021/12/08 06:46:51;;;;;;;0.40;0.20;;;6.40;99.90;;;;;;5100301;28;20482;-75
2021/12/08 06:49:18;;;;;;;0.40;0.30;;;6.50;99.90;;;;;;5098184;28;20376;-75
2021/12/08 06:51:58;;;;;;;0.40;0.20;;;6.50;99.90;;;;;;5100681;28;20407;-76
2021/12/08 06:54:29;;;;;;;0.50;0.50;;;6.30;99.90;;;;;;5100238;28;20730;-76
2021/12/08 06:57:00;;;;;;;0.40;0.30;;;6.20;99.90;;;;;;5091382;28;20377;-75
2021/12/08 06:59:35;;;;;;;0.40;0.20;;;6.20;99.90;;;;;;5076178;28;20421;-74
2021/12/08 07:02:12;;;;;;;0.40;0.20;;;6.10;99.90;;;;;;5093606;28;20378;-74
2021/12/08 07:07:44;;;;;;;0.40;0.20;;;6.00;99.90;;;;;;5065898;28;20374;-74
2021/12/08 07:10:24;;;;;;;0.40;0.20;;;6.00;99.90;;;;;;5128241;27;20383;-74
2021/12/08 07:13:14;;;;;;;0.40;0.30;;;5.90;99.90;;;;;;5133864;27;20840;-74
2021/12/08 07:15:45;;;;;;;0.40;0.30;;;5.80;99.90;;;;;;5115021;27;20381;-74
2021/12/08 07:18:52;;;;;;;0.40;0.20;;;5.70;99.90;;;;;;5121811;27;20410;-73
2021/12/08 07:21:23;;;;;;;0.80;0.80;;;5.80;99.90;;;;;;5113198;28;20381;-73
2021/12/08 07:23:56;;;;;;;0.40;0.30;;;5.80;99.90;;;;;;5113543;28;20368;-73
2021/12/08 07:26:27;;;;;;;0.40;0.30;;;5.90;99.90;;;;;;5113269;28;20424;-73
2021/12/08 07:28:55;;;;;;;0.40;0.40;;;5.80;99.90;;;;;;5113622;28;20372;-73
2021/12/08 07:31:29;;;;;;;0.40;0.20;;;5.80;99.90;;;;;;5113313;28;20376;-73
2021/12/08 07:34:02;;;;;;;0.40;0.20;;;5.70;99.90;;;;;;5080611;28;20390;-72
2021/12/08 07:36:30;;;;;;;0.40;0.30;;;5.70;99.90;;;;;;5092857;28;20878;-72
2021/12/08 07:38:59;;;;;;;0.40;0.20;;;5.60;99.90;;;;;;5092840;28;20393;-72
2021/12/08 07:41:31;;;;;;;0.90;0.90;;;5.60;99.90;;;;;;5092539;28;20386;-72
2021/12/08 07:44:01;;;;;;;0.50;0.50;;;5.70;99.90;;;;;;5092086;28;20375;-73
2021/12/08 07:46:35;;;;;;;0.40;0.30;;;5.60;99.90;;;;;;5092121;28;20476;-73
2021/12/08 07:49:24;;;;;;;0.40;0.20;;;5.90;99.90;;;;;;5092547;28;20374;-74
2021/12/08 07:51:59;;;;;;;0.40;0.30;;;5.90;99.90;;;;;;5091731;28;20378;-73
2021/12/08 07:54:26;;;;;;;0.40;0.20;;;5.90;99.90;;;;;;5092166;28;20783;-74
2021/12/08 07:56:54;;;;;;;0.40;0.30;;;5.80;99.90;;;;;;5091872;28;20890;-74
2021/12/08 07:59:21;;;;;;;0.40;0.20;;;5.80;99.90;;;;;;5091328;28;20743;-74
2021/12/08 08:01:52;;;;;;;0.40;0.30;;;5.80;99.90;;;;;;5091435;28;20791;-74
2021/12/08 08:04:21;;;;;;;0.60;0.60;;;5.80;99.90;;;;;;5092372;28;20439;-74
2021/12/08 08:06:50;;;;;;;0.40;0.20;;;5.70;99.90;;;;;;5091535;28;20406;-75
2021/12/08 08:09:22;;;;;;;0.40;0.30;;;5.80;99.90;;;;;;5074076;28;20451;-73
2021/12/08 08:11:56;;;;;;;0.40;0.30;;;5.80;99.90;;;;;;5074007;28;20389;-74
2021/12/08 08:14:29;;;;;;;0.40;0.30;;;5.80;99.90;;;;;;5092032;28;20386;-73
2021/12/08 08:16:58;;;;;;;0.40;0.30;;;5.90;99.90;;;;;;5091374;28;20952;-74
2021/12/08 08:19:29;;;;;;;0.40;0.30;;;5.80;99.90;;;;;;5092266;28;20375;-73
2021/12/08 08:22:00;;;;;;;0.40;0.30;;;5.80;99.90;;;;;;5073459;28;20752;-73
2021/12/08 08:24:26;;;;;;;0.40;0.30;;;5.90;99.90;;;;;;5092127;28;20714;-73
2021/12/08 08:26:55;;;;;;;0.40;0.30;;;5.80;99.90;;;;;;5091366;28;20448;-74
2021/12/08 08:29:21;;;;;;;0.40;0.20;;;5.80;99.90;;;;;;5091624;28;20382;-74
2021/12/08 08:31:58;;;;;;;0.40;0.20;;;5.80;99.90;;;;;;5073469;28;20464;-73
2021/12/08 08:34:24;;;;;;;0.40;0.30;;;5.80;99.90;;;;;;5109418;28;20391;-73
2021/12/08 08:36:50;;;;;;;0.40;0.30;;;6.00;99.90;;;;;;5111927;28;20467;-73
2021/12/08 08:39:22;;;;;;;0.40;0.23;;;6.00;99.90;;;;;;5111396;28;20377;-73
2021/12/08 08:42:12;;;;;;;0.40;0.20;;;5.90;99.90;;;;;;5111678;28;20377;-73
2021/12/08 08:44:48;;;;;;;0.40;0.30;;;5.80;99.90;;;;;;5112006;28;20388;-72
2021/12/08 08:47:24;;;;;;;0.40;0.20;;;5.80;99.90;;;;;;5111382;28;20375;-73
2021/12/08 08:49:55;;;;;;;0.40;0.20;;;5.80;99.90;;;;;;5112226;28;20403;-72
2021/12/08 08:52:28;;;;;;;0.40;0.20;;;5.90;99.90;;;;;;5111264;28;20380;-72
2021/12/08 08:54:59;;;;;;;0.40;0.20;;;5.90;99.90;;;;;;5093502;28;20412;-71
2021/12/08 08:57:29;;;;;;;0.40;0.20;;;5.90;99.90;;;;;;5110924;28;20371;-72
2021/12/08 09:00:06;;;;;;;0.40;0.20;;;5.90;99.90;;;;;;5111499;28;20711;-72
2021/12/08 09:02:39;;;;;;;0.57;0.57;;;5.80;99.90;;;;;;5110672;28;20379;-72
2021/12/08 09:05:14;;;;;;;0.40;0.30;;;5.90;99.90;;;;;;5111621;28;20411;-72
2021/12/08 09:07:43;;;;;;;0.40;0.30;;;5.80;99.90;;;;;;5111029;28;20388;-72
2021/12/08 09:10:18;;;;;;;0.40;0.40;;;5.90;99.90;;;;;;5093083;28;20403;-72
2021/12/08 09:12:49;;;;;;;0.40;0.30;;;5.90;99.90;;;;;;5110958;28;20380;-72
2021/12/08 09:15:20;;;;;;;0.40;0.30;;;5.90;99.90;;;;;;5111411;28;20909;-72
2021/12/08 09:17:58;;;;;;;0.40;0.30;;;5.80;99.90;;;;;;5110930;28;20392;-73
2021/12/08 09:20:36;;;;;;;4.10;0.70;;;5.80;99.90;;;;;;5111624;28;20384;-73
2021/12/08 09:23:08;;;;;;;0.40;0.20;;;5.90;99.90;;;;;;5093216;28;20475;-73
2021/12/08 09:25:43;;;;;;;0.50;0.50;;;5.90;99.90;;;;;;5110384;28;20428;-76
2021/12/08 09:28:17;;;;;;;0.40;0.20;;;5.80;99.90;;;;;;5111114;28;20494;-73
2021/12/08 09:30:56;;;;;;;0.40;0.30;;;5.90;99.90;;;;;;5111212;28;20425;-74
2021/12/08 09:33:26;;;;;;;0.50;0.50;;;5.90;99.90;;;;;;5101477;28;20390;-73
2021/12/08 09:35:59;;;;;;;0.40;0.30;;;5.90;99.90;;;;;;5090280;28;20484;-74
2021/12/08 09:38:33;;;;;;;0.40;0.40;;;5.90;99.90;;;;;;5091108;28;20377;-73
2021/12/08 09:41:04;;;;;;;0.40;0.30;;;6.00;99.90;;;;;;5090436;28;20383;-74
2021/12/08 09:43:38;;;;;;;0.40;0.30;;;6.00;99.90;;;;;;5090712;28;20754;-74
2021/12/08 09:46:34;;;;;;;0.40;0.30;;;6.00;99.90;;;;;;5090180;28;20414;-74
2021/12/08 09:49:01;;;;;;;0.50;0.50;;;6.10;99.90;;;;;;5090166;28;20847;-74
2021/12/08 09:51:29;;;;;;;0.40;0.40;;;6.00;99.90;;;;;;5090895;28;20423;-74
2021/12/08 09:53:55;;;;;;;0.40;0.30;;;6.00;99.90;;;;;;5090170;28;20378;-74
2021/12/08 09:56:24;;;;;;;0.40;0.20;;;6.00;99.90;;;;;;5072616;28;20406;-74
2021/12/08 09:58:50;;;;;;;0.40;0.20;;;5.90;99.90;;;;;;5089723;28;20370;-75
2021/12/08 10:01:20;;;;;;;0.40;0.20;;;6.00;99.90;;;;;;5090525;28;20381;-75
2021/12/08 10:03:47;;;;;;;0.40;0.30;;;6.10;99.90;;;;;;5090768;28;20389;-74
2021/12/08 10:06:14;;;;;;;0.43;0.38;;;6.10;99.90;;;;;;5090099;28;20434;-74
2021/12/08 10:08:42;;;;;;;0.40;0.20;;;6.20;99.90;;;;;;5090746;28;20393;-75
2021/12/08 10:11:09;;;;;;;0.80;0.80;;;6.10;99.90;;;;;;5089999;28;20386;-74
2021/12/08 10:13:35;;;;;;;0.70;0.50;;;6.20;99.90;;;;;;5090581;28;20366;-74
2021/12/08 10:16:01;;;;;;;0.60;0.60;;;6.20;99.90;;;;;;5072084;28;20439;-75
2021/12/08 10:18:27;;;;;;;0.40;0.30;;;6.20;99.90;;;;;;5090591;28;20403;-74
2021/12/08 10:20:54;;;;;;;0.40;0.30;;;6.30;99.90;;;;;;5090293;28;20377;-74
2021/12/08 10:23:23;;;;;;;0.40;0.20;;;6.20;99.90;;;;;;5092239;28;20396;-74
2021/12/08 10:25:51;;;;;;;0.40;0.20;;;6.30;99.90;;;;;;5075691;28;20486;-74
2021/12/08 10:28:40;;;;;;;0.50;0.50;;;6.30;99.90;;;;;;5093608;28;20390;-74
2021/12/08 10:31:13;;;;;;;0.50;0.50;;;6.30;99.90;;;;;;5064566;28;20728;-75
2021/12/08 10:36:47;;;;;;;0.40;0.20;;;6.20;99.90;;;;;;5113642;28;20433;-74
2021/12/08 10:39:16;;;;;;;0.40;0.28;;;6.20;99.90;;;;;;5113714;28;20396;-75
2021/12/08 10:41:43;;;;;;;0.40;0.20;;;6.20;99.90;;;;;;5096040;28;20381;-74
2021/12/08 10:44:09;;;;;;;0.40;0.32;;;6.20;99.90;;;;;;5114232;28;20460;-74
2021/12/08 10:46:37;;;;;;;0.40;0.30;;;6.20;99.90;;;;;;5113921;28;20626;-74
2021/12/08 10:54:46;;;;;;;0.60;0.60;;;6.30;99.90;;;;;;5113680;28;20431;-75
2021/12/08 10:57:31;;;;;;;0.40;0.30;;;6.40;99.90;;;;;;5095778;28;20869;-75
2021/12/08 11:00:02;;;;;;;0.40;0.30;;;6.40;99.90;;;;;;5113823;28;20384;-74
2021/12/08 11:02:51;;;;;;;0.40;0.30;;;6.40;99.90;;;;;;5113274;28;20386;-75
2021/12/08 11:05:29;;;;;;;0.40;0.30;;;6.40;99.90;;;;;;5095426;28;20503;-75
2021/12/08 11:08:02;;;;;;;0.40;0.30;;;6.50;99.90;;;;;;5113881;28;20380;-75
2021/12/08 11:10:29;;;;;;;0.40;0.20;;;6.40;99.90;;;;;;5113536;28;20373;-75
2021/12/08 11:12:57;;;;;;;0.40;0.30;;;6.50;99.90;;;;;;5113918;28;20372;-75
2021/12/08 11:15:25;;;;;;;0.40;0.30;;;6.50;99.90;;;;;;5113693;28;20379;-75
2021/12/08 11:18:21;;;;;;;0.40;0.30;;;6.60;99.90;;;;;;5112857;28;20729;-75
2021/12/08 11:20:58;;;;;;;0.40;0.30;;;6.60;99.90;;;;;;5113211;28;20383;-75
2021/12/08 11:23:42;;;;;;;0.40;0.30;;;6.70;99.90;;;;;;5113467;28;20457;-75
2021/12/08 11:26:19;;;;;;;0.40;0.20;;;6.70;99.90;;;;;;5113280;28;20786;-75
2021/12/08 11:29:00;;;;;;;0.40;0.30;;;6.60;99.90;;;;;;5112883;28;20376;-75
2021/12/08 11:31:34;;;;;;;0.40;0.30;;;6.80;99.90;;;;;;5113221;28;20865;-75
2021/12/08 11:34:02;;;;;;;0.60;0.50;;;6.70;99.90;;;;;;5094319;28;20380;-75
2021/12/08 11:36:35;;;;;;;1.00;0.50;;;6.70;99.90;;;;;;5113229;28;20387;-75
2021/12/08 11:39:23;;;;;;;1.00;0.70;;;6.60;99.90;;;;;;5112508;28;20380;-75
2021/12/08 11:41:55;;;;;;;0.40;0.30;;;6.60;99.90;;;;;;5112677;28;20419;-75
2021/12/08 11:44:27;;;;;;;0.40;0.30;;;6.50;99.90;;;;;;5113099;28;20384;-75
2021/12/08 11:46:55;;;;;;;0.80;0.80;;;6.60;99.90;;;;;;5112442;28;20403;-75
2021/12/08 11:49:23;;;;;;;0.40;0.30;;;6.50;99.90;;;;;;5112634;28;20380;-74
2021/12/08 11:51:56;;;;;;;0.40;0.30;;;6.60;99.90;;;;;;5113201;28;20380;-75
2021/12/08 11:54:28;;;;;;;0.40;0.20;;;6.60;99.90;;;;;;5113025;28;20441;-75
2021/12/08 11:57:10;;;;;;;0.40;0.30;;;6.60;99.90;;;;;;5112698;28;20621;-75
2021/12/08 11:59:45;;;;;;;0.40;0.30;;;6.70;99.90;;;;;;5112705;28;20369;-75
2021/12/08 12:02:14;;;;;;;0.40;0.30;;;6.80;99.90;;;;;;5093891;28;20757;-75
2021/12/08 12:04:43;;;;;;;1.20;0.60;;;6.70;99.90;;;;;;5112519;28;20435;-75
2021/12/08 12:07:10;;;;;;;0.40;0.30;;;6.70;99.90;;;;;;5112155;28;20485;-75
2021/12/08 12:09:38;;;;;;;0.40;0.30;;;6.80;99.90;;;;;;5113072;28;20377;-75
2021/12/08 12:12:04;;;;;;;0.40;0.20;;;6.80;99.90;;;;;;5111949;28;20879;-75
2021/12/08 12:14:30;;;;;;;0.50;0.50;;;6.70;99.90;;;;;;5094325;28;20430;-74
2021/12/08 12:16:56;;;;;;;0.40;0.30;;;6.80;99.90;;;;;;5112460;28;20744;-73
2021/12/08 12:19:25;;;;;;;0.40;0.30;;;6.80;99.90;;;;;;5111797;28;20513;-73
2021/12/08 12:21:58;;;;;;;0.40;0.20;;;6.70;99.90;;;;;;5112380;28;20372;-73
2021/12/08 12:25:09;;;;;;;0.40;0.30;;;6.60;99.90;;;;;;5111380;28;20441;-74
2021/12/08 12:27:59;;;;;;;0.40;0.20;;;6.70;99.90;;;;;;5112547;28;20477;-74
2021/12/08 12:30:42;;;;;;;0.40;0.40;;;6.60;99.90;;;;;;5111296;28;20409;-74
2021/12/08 12:33:28;;;;;;;0.40;0.20;;;6.70;99.90;;;;;;5104604;28;20397;-73
2021/12/08 12:35:57;;;;;;;0.40;0.28;;;6.70;99.90;;;;;;5091293;28;20430;-74
2021/12/08 12:38:38;;;;;;;0.40;0.30;;;6.60;99.90;;;;;;5090880;28;20732;-74
2021/12/08 12:41:21;;;;;;;0.40;0.30;;;6.70;99.90;;;;;;5073457;28;20781;-74
2021/12/08 12:43:49;;;;;;;0.40;0.20;;;6.60;99.90;;;;;;5092062;28;20400;-74
2021/12/08 12:46:17;;;;;;;0.40;0.20;;;6.60;99.90;;;;;;5091258;28;20410;-74
2021/12/08 12:48:51;;;;;;;0.50;0.50;;;6.70;99.90;;;;;;5090951;28;20370;-74
2021/12/08 12:51:17;;;;;;;0.40;0.30;;;6.60;99.90;;;;;;5091506;28;20466;-74
2021/12/08 12:53:54;;;;;;;0.40;0.20;;;6.50;99.90;;;;;;5090705;28;20382;-73
2021/12/08 12:56:35;;;;;;;0.40;0.25;;;6.50;99.90;;;;;;5091131;28;20467;-73
2021/12/08 12:59:49;;;;;;;0.40;0.20;;;6.50;99.90;;;;;;5091285;28;20390;-74
2021/12/08 13:02:31;;;;;;;0.90;0.70;;;6.50;99.90;;;;;;5072512;28;20394;-74
2021/12/08 13:05:08;;;;;;;3.70;0.80;;;6.50;99.90;;;;;;5090516;28;20479;-74
2021/12/08 13:07:42;;;;;;;0.40;0.30;;;6.50;99.90;;;;;;5091308;28;20410;-74
2021/12/08 13:10:11;;;;;;;0.40;0.30;;;6.50;99.90;;;;;;5073192;28;20386;-74
2021/12/08 13:12:36;;;;;;;0.40;0.30;;;6.50;99.90;;;;;;5091239;28;20411;-73
2021/12/08 13:15:19;;;;;;;0.40;0.30;;;6.40;99.90;;;;;;5090589;28;20820;-74
2021/12/08 13:18:06;;;;;;;0.40;0.30;;;6.40;99.90;;;;;;5073128;28;20415;-74
2021/12/08 13:21:06;;;;;;;0.40;0.30;;;6.40;99.90;;;;;;5073096;28;20793;-74
2021/12/08 13:23:32;;;;;;;0.40;0.30;;;6.30;99.90;;;;;;5045813;28;20482;-74
2021/12/08 13:26:07;;;;;;;0.40;0.30;;;6.30;99.90;;;;;;5089876;28;20457;-74
2021/12/08 13:32:10;;;;;;;0.40;0.30;;;6.40;99.90;;;;;;5090393;28;20390;-74
2021/12/08 13:34:06;;;;;;;0.70;0.70;;;6.40;99.90;;;;;;5097541;28;20877;-74
2021/12/08 13:36:35;;;;;;;9.30;0.90;;;6.30;99.90;;;;;;5093021;28;20393;-74
2021/12/08 13:39:04;;;;;;;0.40;0.30;;;6.30;99.90;;;;;;5092459;28;20449;-74
2021/12/08 13:41:36;;;;;;;0.40;0.30;;;6.30;99.90;;;;;;5111184;28;20381;-74
2021/12/08 13:44:21;;;;;;;0.40;0.30;;;6.30;99.90;;;;;;5110774;28;20368;-75
2021/12/08 13:46:50;;;;;;;0.40;0.20;;;6.20;99.90;;;;;;5111109;28;20408;-74
2021/12/08 13:49:26;;;;;;;0.40;0.30;;;6.20;99.90;;;;;;5110697;28;20405;-74
2021/12/08 13:52:07;;;;;;;0.40;0.30;;;6.20;99.90;;;;;;5111167;28;20376;-74
2021/12/08 13:54:41;;;;;;;0.40;0.40;;;6.10;99.90;;;;;;5110927;28;20400;-74
2021/12/08 13:57:33;;;;;;;3.30;0.90;;;6.20;99.90;;;;;;5111161;28;20680;-75
2021/12/08 13:59:59;;;;;;;0.40;0.30;;;6.10;99.90;;;;;;5087694;28;20483;-74
2021/12/08 14:02:29;;;;;;;0.40;0.20;;;6.10;99.90;;;;;;5096247;28;20479;-74
2021/12/08 14:05:07;;;;;;;0.40;0.20;;;6.20;99.90;;;;;;5096951;28;20424;-74
2021/12/08 14:07:35;;;;;;;0.40;0.20;;;6.10;99.90;;;;;;5096223;28;20730;-74
2021/12/08 14:10:15;;;;;;;0.50;0.50;;;6.10;99.90;;;;;;5114876;28;20858;-74
2021/12/08 14:13:12;;;;;;;0.40;0.30;;;6.10;99.90;;;;;;5115136;28;20477;-73
2021/12/08 14:15:43;;;;;;;0.40;0.30;;;6.00;99.90;;;;;;5097325;28;20420;-73
2021/12/08 14:18:17;;;;;;;0.47;0.47;;;5.90;99.90;;;;;;5114826;28;20388;-73